createdAt,value
2018-08-27T00:00:41.866Z,20.35
2018-08-27T00:03:08.657Z,20.05
2018-08-27T00:05:35.401Z,21.45
2018-08-27T00:08:02.162Z,21.37
2018-08-27T00:10:28.825Z,21.25
2018-08-27T00:12:55.622Z,21.70
2018-08-27T00:15:22.293Z,22.80
2018-08-27T00:17:49.082Z,22.87
2018-08-27T00:20:15.770Z,21.62
2018-08-27T00:22:42.405Z,21.50
2018-08-27T00:25:09.114Z,21.48
2018-08-27T00:27:37.785Z,22.65
2018-08-27T00:30:05.187Z,22.90
2018-08-27T00:32:31.953Z,21.37
2018-08-27T00:34:58.851Z,22.05
2018-08-27T00:37:25.662Z,21.62
2018-08-27T00:39:52.333Z,22.05
2018-08-27T00:42:19.077Z,20.65
2018-08-27T00:44:45.937Z,21.35
2018-08-27T00:47:12.570Z,20.25
2018-08-27T00:49:39.243Z,21.33
2018-08-27T00:52:05.937Z,21.20
2018-08-27T00:54:32.678Z,21.30
2018-08-27T00:56:59.338Z,20.00
2018-08-27T00:59:26.290Z,21.02
2018-08-27T01:01:52.977Z,20.90
2018-08-27T01:04:19.630Z,21.35
2018-08-27T01:06:46.314Z,20.72
2018-08-27T01:09:13.037Z,21.05
2018-08-27T01:11:39.730Z,21.35
2018-08-27T01:14:06.490Z,21.10
2018-08-27T01:16:33.218Z,21.15
2018-08-27T01:19:00.004Z,21.52
2018-08-27T01:21:26.718Z,20.72
2018-08-27T01:23:53.482Z,22.00
2018-08-27T01:26:20.165Z,21.15
2018-08-27T01:28:46.875Z,21.02
2018-08-27T01:31:13.506Z,21.30
2018-08-27T01:33:40.186Z,20.80
2018-08-27T01:36:06.861Z,21.57
2018-08-27T01:38:33.531Z,21.33
2018-08-27T01:41:00.288Z,21.07
2018-08-27T01:43:27.556Z,21.45
2018-08-27T01:45:54.210Z,21.57
2018-08-27T01:48:20.890Z,21.20
2018-08-27T01:50:47.569Z,20.15
2018-08-27T01:53:14.236Z,21.07
2018-08-27T01:55:40.925Z,20.17
2018-08-27T01:58:07.761Z,21.80
2018-08-27T02:00:34.430Z,20.82
2018-08-27T02:03:01.194Z,20.00
2018-08-27T02:05:27.950Z,21.07
2018-08-27T02:07:54.797Z,20.77
2018-08-27T02:10:21.422Z,20.90
2018-08-27T02:12:48.184Z,20.55
2018-08-27T02:15:14.859Z,21.75
2018-08-27T02:17:41.510Z,19.57
2018-08-27T02:20:08.418Z,20.57
2018-08-27T02:22:35.288Z,19.95
2018-08-27T02:25:01.986Z,20.70
2018-08-27T02:27:28.822Z,20.68
2018-08-27T02:29:55.501Z,21.60
2018-08-27T02:32:22.225Z,20.85
2018-08-27T02:34:48.890Z,21.23
2018-08-27T02:37:15.526Z,21.20
2018-08-27T02:39:42.181Z,21.52
2018-08-27T02:42:09.474Z,19.95
2018-08-27T02:44:36.244Z,20.48
2018-08-27T02:47:03.994Z,20.05
2018-08-27T02:49:30.866Z,21.70
2018-08-27T02:51:57.518Z,20.75
2018-08-27T02:54:24.171Z,21.77
2018-08-27T02:56:50.802Z,22.25
2018-08-27T02:59:17.456Z,19.65
2018-08-27T03:01:44.139Z,21.00
2018-08-27T03:04:10.753Z,21.45
2018-08-27T03:06:37.378Z,20.12
2018-08-27T03:09:05.287Z,21.15
2018-08-27T03:11:31.981Z,21.25
2018-08-27T03:13:58.773Z,22.22
2018-08-27T03:16:25.570Z,20.00
2018-08-27T03:18:52.221Z,20.43
2018-08-27T03:21:18.897Z,20.72
2018-08-27T03:23:45.553Z,19.42
2018-08-27T03:26:12.420Z,21.85
2018-08-27T03:28:39.118Z,21.45
2018-08-27T03:31:05.970Z,21.80
2018-08-27T03:33:33.138Z,20.95
2018-08-27T03:36:00.021Z,21.05
2018-08-27T03:38:26.692Z,21.15
2018-08-27T03:40:53.352Z,20.88
2018-08-27T03:43:20.025Z,21.45
2018-08-27T03:45:46.750Z,22.17
2018-08-27T03:48:13.418Z,20.12
2018-08-27T03:50:40.097Z,22.32
2018-08-27T03:53:06.853Z,20.90
2018-08-27T03:55:33.499Z,21.07
2018-08-27T03:58:00.130Z,20.30
2018-08-27T04:00:26.806Z,20.80
2018-08-27T04:02:53.480Z,21.25
2018-08-27T04:05:22.394Z,21.52
2018-08-27T04:07:49.069Z,20.32
2018-08-27T04:10:15.839Z,20.68
2018-08-27T04:12:42.523Z,20.65
2018-08-27T04:15:09.244Z,20.12
2018-08-27T04:17:36.032Z,21.05
2018-08-27T04:20:03.369Z,21.57
2018-08-27T04:22:30.117Z,21.37
2018-08-27T04:24:56.754Z,20.55
2018-08-27T04:27:23.445Z,21.70
2018-08-27T04:29:50.507Z,21.87
2018-08-27T04:32:17.676Z,22.32
2018-08-27T04:34:44.367Z,21.48
2018-08-27T04:37:11.073Z,22.73
2018-08-27T04:39:37.735Z,21.73
2018-08-27T04:42:04.470Z,20.70
2018-08-27T04:44:31.149Z,21.77
2018-08-27T04:46:57.900Z,21.75
2018-08-27T04:49:24.517Z,21.30
2018-08-27T04:51:51.154Z,21.77
2018-08-27T04:54:17.814Z,20.77
2018-08-27T04:56:44.473Z,20.65
2018-08-27T04:59:13.135Z,20.35
2018-08-27T05:01:39.932Z,20.50
2018-08-27T05:04:06.623Z,22.98
2018-08-27T05:06:33.253Z,20.43
2018-08-27T05:08:59.898Z,20.37
2018-08-27T05:11:27.228Z,20.55
2018-08-27T05:13:53.874Z,22.60
2018-08-27T05:16:20.541Z,21.70
2018-08-27T05:18:47.225Z,20.40
2018-08-27T05:21:13.930Z,21.80
2018-08-27T05:23:40.569Z,22.67
2018-08-27T05:26:07.417Z,21.75
2018-08-27T05:28:34.218Z,20.50
2018-08-27T05:31:01.986Z,20.82
2018-08-27T05:33:28.575Z,20.57
2018-08-27T05:35:55.258Z,21.17
2018-08-27T05:38:21.908Z,20.80
2018-08-27T05:40:48.581Z,20.10
2018-08-27T05:43:15.318Z,21.02
2018-08-27T05:45:42.003Z,20.60
2018-08-27T05:48:08.642Z,21.20
2018-08-27T05:50:35.297Z,20.97
2018-08-27T05:53:01.994Z,21.20
2018-08-27T05:55:29.329Z,21.37
2018-08-27T05:57:56.041Z,21.27
2018-08-27T06:00:22.730Z,21.37
2018-08-27T06:02:49.421Z,22.17
2018-08-27T06:05:16.093Z,21.45
2018-08-27T06:07:42.786Z,21.95
2018-08-27T06:10:09.462Z,21.27
2018-08-27T06:12:36.298Z,20.77
2018-08-27T06:15:04.493Z,20.75
2018-08-27T06:17:31.147Z,20.48
2018-08-27T06:19:57.931Z,21.87
2018-08-27T06:22:24.684Z,21.73
2018-08-27T06:24:51.466Z,21.85
2018-08-27T06:27:18.212Z,21.55
2018-08-27T06:29:45.621Z,21.65
2018-08-27T06:32:12.428Z,21.97
2018-08-27T06:34:39.108Z,21.30
2018-08-27T06:37:05.856Z,20.45
2018-08-27T06:39:32.503Z,21.42
2018-08-27T06:41:59.169Z,23.22
2018-08-27T06:44:26.020Z,21.60
2018-08-27T06:46:52.725Z,20.80
2018-08-27T06:49:19.561Z,21.20
2018-08-27T06:51:46.436Z,20.62
2018-08-27T06:54:13.742Z,21.10
2018-08-27T06:56:40.540Z,22.10
2018-08-27T06:59:07.217Z,21.87
2018-08-27T07:01:33.985Z,20.90
2018-08-27T07:04:00.723Z,22.00
2018-08-27T07:06:27.384Z,21.05
2018-08-27T07:08:54.036Z,20.37
2018-08-27T07:11:20.753Z,21.40
2018-08-27T07:13:47.453Z,20.82
2018-08-27T07:16:14.211Z,20.02
2018-08-27T07:18:41.047Z,20.27
2018-08-27T07:21:07.702Z,20.60
2018-08-27T07:23:34.434Z,20.55
2018-08-27T07:26:01.105Z,20.75
2018-08-27T07:28:28.101Z,20.70
2018-08-27T07:30:54.809Z,22.22
2018-08-27T07:33:21.470Z,21.42
2018-08-27T07:35:48.185Z,21.17
2018-08-27T07:38:14.865Z,21.48
2018-08-27T07:40:42.375Z,21.02
2018-08-27T07:43:09.074Z,20.92
2018-08-27T07:45:35.774Z,21.00
2018-08-27T07:48:02.566Z,19.92
2018-08-27T07:50:29.337Z,21.73
2018-08-27T07:52:56.124Z,21.80
2018-08-27T07:55:22.802Z,21.75
2018-08-27T07:57:49.542Z,22.50
2018-08-27T08:00:21.797Z,21.50
2018-08-27T08:02:48.842Z,21.85
2018-08-27T08:05:15.837Z,20.57
2018-08-27T08:07:42.617Z,22.58
2018-08-27T08:10:09.339Z,21.50
2018-08-27T08:12:36.018Z,21.65
2018-08-27T08:15:02.818Z,20.23
2018-08-27T08:17:29.566Z,21.73
2018-08-27T08:19:56.245Z,20.90
2018-08-27T08:22:24.140Z,22.95
2018-08-27T08:24:50.910Z,19.60
2018-08-27T08:27:18.447Z,22.22
2018-08-27T08:29:45.237Z,20.72
2018-08-27T08:32:11.973Z,21.37
2018-08-27T08:34:38.767Z,21.27
2018-08-27T08:37:05.685Z,20.20
2018-08-27T08:39:32.425Z,20.68
2018-08-27T08:41:59.111Z,20.90
2018-08-27T08:44:25.795Z,20.20
2018-08-27T08:46:52.739Z,20.12
2018-08-27T08:49:19.417Z,20.77
2018-08-27T08:51:46.123Z,21.25
2018-08-27T08:54:12.833Z,21.15
2018-08-27T08:56:39.592Z,20.68
2018-08-27T08:59:11.952Z,20.88
2018-08-27T09:01:40.322Z,21.27
2018-08-27T09:04:08.148Z,21.33
2018-08-27T09:06:35.950Z,20.15
2018-08-27T09:09:05.081Z,21.93
2018-08-27T09:11:33.295Z,21.82
2018-08-27T09:14:01.081Z,20.12
2018-08-27T09:16:28.715Z,21.12
2018-08-27T09:18:56.390Z,20.50
2018-08-27T09:21:24.121Z,20.12
2018-08-27T09:23:51.082Z,22.17
2018-08-27T09:26:17.751Z,20.65
2018-08-27T09:28:44.598Z,20.48
2018-08-27T09:31:11.498Z,20.62
2018-08-27T09:33:38.774Z,22.00
2018-08-27T09:36:05.667Z,21.57
2018-08-27T09:38:32.943Z,21.70
2018-08-27T09:40:59.617Z,21.65
2018-08-27T09:43:26.502Z,21.02
2018-08-27T09:45:53.872Z,23.45
2018-08-27T09:48:20.570Z,21.85
2018-08-27T09:50:47.324Z,21.60
2018-08-27T09:53:14.127Z,22.60
2018-08-27T09:55:41.051Z,23.20
2018-08-27T09:58:07.884Z,21.25
2018-08-27T10:00:40.419Z,21.35
2018-08-27T10:03:07.831Z,21.35
2018-08-27T10:05:34.704Z,22.25
2018-08-27T10:08:01.464Z,21.97
2018-08-27T10:10:28.271Z,24.90
2018-08-27T10:12:55.069Z,22.22
2018-08-27T10:15:21.905Z,23.18
2018-08-27T10:17:48.775Z,27.17
2018-08-27T10:20:16.138Z,24.07
2018-08-27T10:22:42.981Z,30.72
2018-08-27T10:25:09.738Z,24.57
2018-08-27T10:27:36.382Z,25.32
2018-08-27T10:30:03.258Z,23.40
2018-08-27T10:32:29.933Z,24.92
2018-08-27T10:34:56.785Z,25.57
2018-08-27T10:37:23.570Z,23.62
2018-08-27T10:39:50.361Z,24.12
2018-08-27T10:42:17.086Z,24.05
2018-08-27T10:44:43.966Z,24.23
2018-08-27T10:47:10.691Z,23.22
2018-08-27T10:49:38.183Z,23.75
2018-08-27T10:52:05.386Z,24.80
2018-08-27T10:54:32.143Z,24.23
2018-08-27T10:56:58.914Z,23.10
2018-08-27T10:59:25.611Z,25.82
2018-08-27T11:01:52.440Z,24.47
2018-08-27T11:04:20.273Z,26.42
2018-08-27T11:06:47.065Z,25.12
2018-08-27T11:09:13.779Z,24.82
2018-08-27T11:11:40.515Z,26.57
2018-08-27T11:14:07.232Z,24.15
2018-08-27T11:16:34.744Z,26.27
2018-08-27T11:19:01.510Z,24.55
2018-08-27T11:21:28.155Z,29.37
2018-08-27T11:23:54.948Z,25.17
2018-08-27T11:26:21.815Z,26.77
2018-08-27T11:28:48.516Z,25.45
2018-08-27T11:31:15.227Z,23.80
2018-08-27T11:33:42.033Z,24.87
2018-08-27T11:36:08.727Z,25.77
2018-08-27T11:38:35.618Z,25.50
2018-08-27T11:41:02.335Z,24.85
2018-08-27T11:43:29.712Z,24.25
2018-08-27T11:45:56.365Z,24.18
2018-08-27T11:48:23.069Z,23.38
2018-08-27T11:50:49.973Z,25.50
2018-08-27T11:53:17.505Z,24.00
2018-08-27T11:55:44.344Z,27.77
2018-08-27T11:58:11.072Z,25.75
2018-08-27T12:00:43.584Z,26.68
2018-08-27T12:03:10.478Z,25.12
2018-08-27T12:05:37.186Z,24.80
2018-08-27T12:08:04.110Z,23.90
2018-08-27T12:10:30.870Z,26.65
2018-08-27T12:12:57.716Z,27.00
2018-08-27T12:15:24.566Z,24.92
2018-08-27T12:17:51.306Z,26.42
2018-08-27T12:20:18.074Z,26.23
2018-08-27T12:22:44.873Z,26.48
2018-08-27T12:25:11.661Z,26.27
2018-08-27T12:27:38.390Z,27.48
2018-08-27T12:30:05.650Z,26.40
2018-08-27T12:32:32.386Z,27.30
2018-08-27T12:34:59.427Z,27.30
2018-08-27T12:37:26.172Z,25.80
2018-08-27T12:39:52.938Z,25.02
2018-08-27T12:42:20.593Z,26.12
2018-08-27T12:44:47.525Z,24.57
2018-08-27T12:47:15.190Z,26.60
2018-08-27T12:49:41.969Z,24.07
2018-08-27T12:52:09.185Z,25.15
2018-08-27T12:54:36.029Z,23.98
2018-08-27T12:57:02.911Z,27.60
2018-08-27T12:59:29.743Z,25.97
2018-08-27T13:01:56.478Z,26.85
2018-08-27T13:04:23.220Z,24.12
2018-08-27T13:06:50.027Z,24.27
2018-08-27T13:09:16.781Z,26.05
2018-08-27T13:11:43.568Z,24.15
2018-08-27T13:14:10.349Z,24.55
2018-08-27T13:16:37.055Z,22.75
2018-08-27T13:19:04.052Z,22.87
2018-08-27T13:21:30.761Z,23.52
2018-08-27T13:23:57.548Z,22.95
2018-08-27T13:26:24.597Z,24.10
2018-08-27T13:28:51.761Z,23.50
2018-08-27T13:31:18.526Z,24.72
2018-08-27T13:33:45.422Z,23.83
2018-08-27T13:36:12.590Z,24.67
2018-08-27T13:38:39.644Z,24.00
2018-08-27T13:41:06.590Z,24.10
2018-08-27T13:43:33.946Z,23.80
2018-08-27T13:46:00.881Z,23.47
2018-08-27T13:48:27.677Z,25.15
2018-08-27T13:50:54.788Z,24.92
2018-08-27T13:53:21.586Z,24.72
2018-08-27T13:55:48.626Z,23.77
2018-08-27T13:58:15.507Z,24.82
2018-08-27T14:00:43.580Z,24.47
2018-08-27T14:03:10.272Z,25.45
2018-08-27T14:05:37.000Z,23.90
2018-08-27T14:08:03.705Z,23.40
2018-08-27T14:10:30.638Z,24.63
2018-08-27T14:12:57.466Z,23.62
2018-08-27T14:15:24.274Z,22.67
2018-08-27T14:17:51.055Z,23.77
2018-08-27T14:20:17.935Z,23.38
2018-08-27T14:22:44.861Z,22.50
2018-08-27T14:25:11.653Z,22.70
2018-08-27T14:27:38.423Z,23.45
2018-08-27T14:30:05.614Z,24.60
2018-08-27T14:32:32.455Z,21.97
2018-08-27T14:34:59.158Z,22.60
2018-08-27T14:37:25.997Z,23.32
2018-08-27T14:39:52.729Z,23.62
2018-08-27T14:42:21.076Z,24.85
2018-08-27T14:44:47.838Z,23.80
2018-08-27T14:47:14.586Z,22.25
2018-08-27T14:49:41.829Z,23.90
2018-08-27T14:52:08.673Z,24.43
2018-08-27T14:54:35.425Z,23.83
2018-08-27T14:57:02.437Z,23.98
2018-08-27T14:59:29.145Z,23.70
2018-08-27T15:01:55.966Z,23.05
2018-08-27T15:04:22.772Z,24.27
2018-08-27T15:06:49.674Z,23.60
2018-08-27T15:09:16.902Z,24.27
2018-08-27T15:11:43.830Z,23.65
2018-08-27T15:14:10.695Z,22.80
2018-08-27T15:16:38.252Z,24.82
2018-08-27T15:19:05.218Z,23.55
2018-08-27T15:21:31.972Z,24.10
2018-08-27T15:23:58.754Z,23.77
2018-08-27T15:26:25.503Z,23.22
2018-08-27T15:28:52.239Z,24.43
2018-08-27T15:31:19.047Z,23.98
2018-08-27T15:33:45.867Z,23.80
2018-08-27T15:36:12.687Z,23.38
2018-08-27T15:38:40.496Z,23.30
2018-08-27T15:41:07.182Z,24.92
2018-08-27T15:43:34.248Z,25.15
2018-08-27T15:46:06.416Z,25.72
2018-08-27T15:48:33.262Z,26.87
2018-08-27T15:51:00.006Z,28.02
2018-08-27T15:53:26.864Z,23.47
2018-08-27T15:55:53.649Z,24.35
2018-08-27T15:58:20.632Z,23.75
2018-08-27T16:00:47.379Z,23.57
2018-08-27T16:03:14.223Z,24.10
2018-08-27T16:05:41.033Z,24.37
2018-08-27T16:08:07.879Z,24.25
2018-08-27T16:10:34.600Z,23.70
2018-08-27T16:13:02.229Z,23.67
2018-08-27T16:15:29.061Z,23.35
2018-08-27T16:17:55.881Z,23.98
2018-08-27T16:20:23.127Z,23.15
2018-08-27T16:22:50.634Z,25.52
2018-08-27T16:25:18.042Z,23.20
2018-08-27T16:27:44.770Z,25.70
2018-08-27T16:30:12.291Z,24.63
2018-08-27T16:32:39.113Z,25.08
2018-08-27T16:35:06.201Z,23.95
2018-08-27T16:37:33.060Z,24.25
2018-08-27T16:40:00.560Z,24.45
2018-08-27T16:42:27.415Z,24.85
2018-08-27T16:44:54.677Z,25.57
2018-08-27T16:47:21.390Z,23.65
2018-08-27T16:49:48.523Z,23.50
2018-08-27T16:52:15.371Z,27.10
2018-08-27T16:54:42.114Z,26.42
2018-08-27T16:57:09.059Z,25.50
2018-08-27T16:59:36.054Z,25.08
2018-08-27T17:02:02.914Z,27.05
2018-08-27T17:04:30.639Z,24.92
2018-08-27T17:06:58.016Z,24.23
2018-08-27T17:09:24.853Z,24.45
2018-08-27T17:11:51.675Z,26.37
2018-08-27T17:14:18.601Z,25.77
2018-08-27T17:16:46.080Z,24.75
2018-08-27T17:19:12.965Z,25.43
2018-08-27T17:21:39.866Z,24.63
2018-08-27T17:24:06.685Z,25.35
2018-08-27T17:26:33.514Z,24.57
2018-08-27T17:29:00.305Z,26.40
2018-08-27T17:31:27.240Z,24.07
2018-08-27T17:33:54.189Z,24.85
2018-08-27T17:36:21.108Z,24.47
2018-08-27T17:38:47.952Z,24.55
2018-08-27T17:41:15.657Z,24.23
2018-08-27T17:43:42.496Z,25.10
2018-08-27T17:46:09.904Z,25.45
2018-08-27T17:48:36.771Z,23.85
2018-08-27T17:51:03.722Z,24.50
2018-08-27T17:53:30.649Z,24.43
2018-08-27T17:55:58.091Z,25.35
2018-08-27T17:58:25.079Z,22.93
2018-08-27T18:00:51.984Z,24.07
2018-08-27T18:03:19.003Z,24.82
2018-08-27T18:05:46.009Z,25.65
2018-08-27T18:08:13.041Z,26.15
2018-08-27T18:10:41.217Z,24.50
2018-08-27T18:13:08.471Z,23.50
2018-08-27T18:15:35.545Z,24.70
2018-08-27T18:18:02.680Z,23.40
2018-08-27T18:20:29.855Z,24.65
2018-08-27T18:22:57.282Z,23.87
2018-08-27T18:25:24.399Z,24.70
2018-08-27T18:27:51.524Z,24.75
2018-08-27T18:30:18.484Z,24.60
2018-08-27T18:32:45.657Z,25.05
2018-08-27T18:35:12.524Z,25.32
2018-08-27T18:37:39.436Z,25.97
2018-08-27T18:40:07.750Z,27.20
2018-08-27T18:42:34.893Z,26.95
2018-08-27T18:45:13.291Z,25.80
2018-08-27T18:47:44.743Z,27.22
2018-08-27T18:50:11.917Z,26.10
2018-08-27T18:52:39.112Z,25.35
2018-08-27T18:55:06.602Z,25.80
2018-08-27T18:57:33.824Z,25.12
2018-08-27T19:00:00.780Z,24.60
2018-08-27T19:02:27.992Z,27.10
2018-08-27T19:04:55.188Z,25.55
2018-08-27T19:07:22.346Z,26.82
2018-08-27T19:09:49.539Z,26.48
2018-08-27T19:12:17.627Z,27.22
2018-08-27T19:14:44.868Z,27.00
2018-08-27T19:17:12.040Z,27.22
2018-08-27T19:19:39.756Z,27.58
2018-08-27T19:22:07.221Z,36.95
2018-08-27T19:24:34.829Z,28.67
2018-08-27T19:27:01.973Z,27.93
2018-08-27T19:29:29.983Z,28.83
2018-08-27T19:31:57.442Z,27.90
2018-08-27T19:34:25.210Z,29.48
2018-08-27T19:36:52.677Z,28.10
2018-08-27T19:39:20.099Z,26.87
2018-08-27T19:41:47.682Z,26.70
2018-08-27T19:44:15.337Z,27.35
2018-08-27T19:46:42.683Z,27.93
2018-08-27T19:49:09.683Z,27.87
2018-08-27T19:51:36.913Z,26.40
2018-08-27T19:54:03.821Z,27.50
2018-08-27T19:56:31.009Z,27.65
2018-08-27T19:58:58.390Z,27.75
2018-08-27T20:01:25.395Z,25.65
2018-08-27T20:03:52.274Z,27.30
2018-08-27T20:06:19.291Z,26.73
2018-08-27T20:08:46.170Z,28.10
2018-08-27T20:11:12.992Z,28.83
2018-08-27T20:13:39.968Z,26.85
2018-08-27T20:16:07.081Z,27.02
2018-08-27T20:18:34.022Z,28.60
2018-08-27T20:21:00.889Z,27.27
2018-08-27T20:23:27.732Z,27.22
2018-08-27T20:25:54.730Z,27.20
2018-08-27T20:28:21.721Z,26.30
2018-08-27T20:30:48.615Z,27.05
2018-08-27T20:33:15.368Z,28.42
2018-08-27T20:35:42.151Z,26.97
2018-08-27T20:38:08.933Z,25.75
2018-08-27T20:40:35.783Z,26.02
2018-08-27T20:43:02.511Z,26.97
2018-08-27T20:45:29.263Z,26.95
2018-08-27T20:47:56.179Z,25.45
2018-08-27T20:50:22.941Z,28.35
2018-08-27T20:52:49.807Z,28.75
2018-08-27T20:55:16.912Z,31.93
2018-08-27T20:57:43.769Z,28.47
2018-08-27T21:00:10.643Z,27.70
2018-08-27T21:02:37.607Z,26.45
2018-08-27T21:05:04.370Z,26.50
2018-08-27T21:07:31.380Z,29.07
2018-08-27T21:09:58.344Z,25.37
2018-08-27T21:12:25.111Z,28.50
2018-08-27T21:14:54.374Z,27.37
2018-08-27T21:17:21.089Z,28.27
2018-08-27T21:19:47.863Z,26.87
2018-08-27T21:22:14.614Z,26.85
2018-08-27T21:24:41.330Z,28.80
2018-08-27T21:27:08.063Z,27.90
2018-08-27T21:29:34.788Z,27.60
2018-08-27T21:32:01.528Z,26.40
2018-08-27T21:34:29.030Z,26.90
2018-08-27T21:36:55.710Z,26.17
2018-08-27T21:39:22.422Z,26.48
2018-08-27T21:41:49.490Z,28.42
2018-08-27T21:44:16.168Z,26.37
2018-08-27T21:46:43.466Z,26.40
2018-08-27T21:49:10.137Z,25.70
2018-08-27T21:51:36.863Z,25.92
2018-08-27T21:54:04.040Z,28.07
2018-08-27T21:56:30.778Z,27.52
2018-08-27T21:58:57.626Z,25.43
2018-08-27T22:01:24.446Z,26.45
2018-08-27T22:03:56.884Z,27.17
2018-08-27T22:06:23.573Z,27.00
2018-08-27T22:08:50.456Z,26.42
2018-08-27T22:11:17.190Z,26.57
2018-08-27T22:13:43.897Z,26.80
2018-08-27T22:16:11.650Z,26.87
2018-08-27T22:18:38.319Z,27.75
2018-08-27T22:21:05.099Z,57.75
2018-08-27T22:23:31.761Z,27.05
2018-08-27T22:25:58.461Z,25.25
2018-08-27T22:28:25.184Z,26.20
2018-08-27T22:30:52.042Z,27.00
2018-08-27T22:33:18.786Z,28.15
2018-08-27T22:35:45.570Z,27.35
2018-08-27T22:38:12.753Z,23.60
2018-08-27T22:40:39.511Z,24.52
2018-08-27T22:43:06.212Z,25.17
2018-08-27T22:45:32.900Z,24.32
2018-08-27T22:47:59.709Z,24.00
2018-08-27T22:50:26.532Z,25.27
2018-08-27T22:52:53.200Z,24.67
2018-08-27T22:55:19.974Z,23.90
2018-08-27T22:57:46.744Z,24.25
2018-08-27T23:00:13.525Z,25.15
2018-08-27T23:02:45.881Z,26.65
2018-08-27T23:05:13.237Z,24.12
2018-08-27T23:07:40.401Z,26.25
2018-08-27T23:10:07.333Z,26.12
2018-08-27T23:12:34.138Z,24.52
2018-08-27T23:15:02.683Z,24.85
2018-08-27T23:17:29.345Z,25.10
2018-08-27T23:19:56.049Z,26.10
2018-08-27T23:22:22.717Z,25.75
2018-08-27T23:24:49.451Z,27.05
2018-08-27T23:27:16.130Z,24.50
2018-08-27T23:29:42.841Z,25.50
2018-08-27T23:32:09.525Z,25.88
2018-08-27T23:34:36.261Z,25.00
2018-08-27T23:37:03.291Z,24.60
2018-08-27T23:39:29.997Z,24.37
2018-08-27T23:41:56.677Z,24.80
2018-08-27T23:44:23.351Z,25.02
2018-08-27T23:46:50.017Z,24.32
2018-08-27T23:49:16.653Z,21.97
2018-08-27T23:51:43.367Z,23.92
2018-08-27T23:54:10.044Z,23.00
2018-08-27T23:56:36.709Z,23.70
2018-08-27T23:59:03.446Z,23.87
